Latest Weather Observations for Melville Water

IDW60801

Issued at 3:02 am WST Monday 27 April 2015 (issued every 30 minutes, with the page automatically refreshed every 10 minutes)

About weather observations | Map of weather stations | Latest weather observations for WA | Other Formats
Station Details ID: 009091 Name: INNER DOLPHIN PYLON Lat: -31.99 Lon: 115.83 Height: 0.0 m
Data from the previous 72 hours. | See also: Recent months for locations in Western Australia
Date/Time
WST
Temp
°C
App
Temp
°C
Dew
Point
Rel
Hum
%
Delta-T
°C
Wind Press
QNH
hPa
Press
MSL
hPa
Rain
since 9 am
mm
Dir
 
Spd
km/h
Gust
km/h
Spd
kts
Gust
kts
27/03:00am - - - - - ENE 26 39 14 21 - - -
27/02:30am - - - - - ENE 22 30 12 16 - - -
27/02:00am - - - - - ENE 22 28 12 15 - - -
27/01:30am - - - - - E 15 19 8 10 - - -
27/01:00am - - - - - E 7 11 4 6 - - -
27/12:30am - - - - - E 7 11 4 6 - - -
27/12:00am - - - - - ESE 4 6 2 3 - - -
 
Date/Time
WST
Temp
°C
App
Temp
°C
Dew
Point
Rel
Hum
%
Delta-T
°C
Wind Press
QNH
hPa
Press
MSL
hPa
Rain
since 9 am
mm
Dir
 
Spd
km/h
Gust
km/h
Spd
kts
Gust
kts
26/11:30pm - - - - - ESE 9 11 5 6 - - -
26/11:00pm - - - - - SE 9 11 5 6 - - -
26/10:30pm - - - - - E 7 9 4 5 - - -
26/10:00pm - - - - - ESE 7 9 4 5 - - -
26/09:30pm - - - - - ESE 7 9 4 5 - - -
26/09:00pm - - - - - ESE 9 11 5 6 - - -
26/08:30pm - - - - - ESE 9 11 5 6 - - -
26/08:00pm - - - - - E 7 11 4 6 - - -
26/07:30pm - - - - - ESE 7 9 4 5 - - -
26/07:00pm - - - - - E 9 11 5 6 - - -
26/06:30pm - - - - - ENE 11 13 6 7 - - -
26/06:00pm - - - - - ENE 15 20 8 11 - - -
26/05:30pm - - - - - E 20 26 11 14 - - -
26/05:00pm - - - - - ESE 15 24 8 13 - - -
26/04:30pm - - - - - ENE 17 26 9 14 - - -
26/04:00pm - - - - - E 17 24 9 13 - - -
26/03:30pm - - - - - ENE 15 22 8 12 - - -
26/03:00pm - - - - - ENE 20 30 11 16 - - -
26/02:30pm - - - - - ESE 20 32 11 17 - - -
26/02:00pm - - - - - E 17 28 9 15 - - -
26/01:30pm - - - - - E 17 30 9 16 - - -
26/01:00pm - - - - - ENE 19 24 10 13 - - -
26/12:30pm - - - - - E 20 32 11 17 - - -
26/12:00pm - - - - - ENE 20 28 11 15 - - -
26/11:30am - - - - - ENE 24 35 13 19 - - -
26/11:00am - - - - - ENE 20 28 11 15 - - -
26/10:30am - - - - - ENE 20 30 11 16 - - -
26/10:00am - - - - - ENE 22 32 12 17 - - -
26/09:30am - - - - - ENE 24 32 13 17 - - -
26/09:00am - - - - - ENE 24 32 13 17 - - -
26/08:30am - - - - - ENE 28 35 15 19 - - -
26/08:00am - - - - - ENE 19 24 10 13 - - -
26/07:30am - - - - - E 15 20 8 11 - - -
26/07:00am - - - - - E 15 17 8 9 - - -
26/06:30am - - - - - E 15 20 8 11 - - -
26/06:00am - - - - - E 17 24 9 13 - - -
26/05:30am - - - - - E 17 20 9 11 - - -
26/05:00am - - - - - E 15 19 8 10 - - -
26/04:30am - - - - - ENE 17 22 9 12 - - -
26/04:00am - - - - - E 17 22 9 12 - - -
26/03:30am - - - - - E 19 22 10 12 - - -
26/03:00am - - - - - E 17 22 9 12 - - -
26/02:30am - - - - - E 19 26 10 14 - - -
26/02:00am - - - - - E 15 20 8 11 - - -
26/01:30am - - - - - E 17 28 9 15 - - -
26/01:00am - - - - - E 22 30 12 16 - - -
26/12:30am - - - - - E 22 33 12 18 - - -
26/12:00am - - - - - E 20 28 11 15 - - -
 
Date/Time
WST
Temp
°C
App
Temp
°C
Dew
Point
Rel
Hum
%
Delta-T
°C
Wind Press
QNH
hPa
Press
MSL
hPa
Rain
since 9 am
mm
Dir
 
Spd
km/h
Gust
km/h
Spd
kts
Gust
kts
25/11:30pm - - - - - E 17 26 9 14 - - -
25/11:00pm - - - - - E 22 35 12 19 - - -
25/10:30pm - - - - - ESE 22 30 12 16 - - -
25/10:00pm - - - - - ESE 22 30 12 16 - - -
25/09:30pm - - - - - SE 24 30 13 16 - - -
25/09:00pm - - - - - SE 19 24 10 13 - - -
25/08:30pm - - - - - SE 15 19 8 10 - - -
25/08:00pm - - - - - SE 13 15 7 8 - - -
25/07:30pm - - - - - SE 15 19 8 10 - - -
25/07:00pm - - - - - SE 17 20 9 11 - - -
25/06:30pm - - - - - ESE 17 22 9 12 - - -
25/06:00pm - - - - - ESE 22 28 12 15 - - -
25/05:30pm - - - - - ESE 22 30 12 16 - - -
25/05:00pm - - - - - ESE 20 26 11 14 - - -
25/04:30pm - - - - - ESE 20 33 11 18 - - -
25/04:00pm - - - - - E 20 28 11 15 - - -
25/03:30pm - - - - - E 20 30 11 16 - - -
25/03:00pm - - - - - ESE 20 28 11 15 - - -
25/02:30pm - - - - - ESE 26 35 14 19 - - -
25/02:00pm - - - - - E 24 33 13 18 - - -
25/01:30pm - - - - - ENE 19 30 10 16 - - -
25/01:00pm - - - - - ESE 20 30 11 16 - - -
25/12:30pm - - - - - E 24 37 13 20 - - -
25/12:00pm - - - - - E 20 30 11 16 - - -
25/11:30am - - - - - ENE 20 32 11 17 - - -
25/11:00am - - - - - E 28 41 15 22 - - -
25/10:30am - - - - - ENE 28 35 15 19 - - -
25/10:00am - - - - - E 30 35 16 19 - - -
25/09:30am - - - - - E 24 33 13 18 - - -
25/09:00am - - - - - E 28 37 15 20 - - -
25/08:30am - - - - - E 26 35 14 19 - - -
25/08:00am - - - - - E 20 28 11 15 - - -
25/07:30am - - - - - E 17 22 9 12 - - -
25/07:00am - - - - - E 19 22 10 12 - - -
25/06:30am - - - - - E 19 24 10 13 - - -
25/06:00am - - - - - E 19 24 10 13 - - -
25/05:30am - - - - - ENE 17 22 9 12 - - -
25/05:00am - - - - - E 22 30 12 16 - - -
25/04:30am - - - - - E 22 33 12 18 - - -
25/04:00am - - - - - E 20 30 11 16 - - -
25/03:30am - - - - - E 24 32 13 17 - - -
25/03:00am - - - - - E 24 33 13 18 - - -
25/02:36am - - - - - E 28 46 15 25 - - -
25/02:30am - - - - - E 26 35 14 19 - - -
25/02:00am - - - - - E 30 43 16 23 - - -
25/01:30am - - - - - E 28 41 15 22 - - -
25/01:00am - - - - - E 32 39 17 21 - - -
25/12:30am - - - - - E 32 41 17 22 - - -
25/12:00am - - - - - E 33 54 18 29 - - -
 
Date/Time
WST
Temp
°C
App
Temp
°C
Dew
Point
Rel
Hum
%
Delta-T
°C
Wind Press
QNH
hPa
Press
MSL
hPa
Rain
since 9 am
mm
Dir
 
Spd
km/h
Gust
km/h
Spd
kts
Gust
kts
24/11:30pm - - - - - E 32 50 17 27 - - -
24/11:24pm - - - - - E 32 50 17 27 - - -
24/11:00pm - - - - - E 32 46 17 25 - - -
24/10:32pm - - - - - E 28 46 15 25 - - -
24/10:30pm - - - - - E 26 39 14 21 - - -
24/10:00pm - - - - - ESE 22 30 12 16 - - -
24/09:30pm - - - - - ESE 28 37 15 20 - - -
24/09:00pm - - - - - ESE 24 33 13 18 - - -
24/08:30pm - - - - - ESE 22 35 12 19 - - -
24/08:00pm - - - - - ESE 28 37 15 20 - - -
24/07:30pm - - - - - ESE 24 35 13 19 - - -
24/07:00pm - - - - - ESE 22 30 12 16 - - -
24/06:30pm - - - - - SE 17 24 9 13 - - -
24/06:00pm - - - - - SE 15 17 8 9 - - -
24/05:30pm - - - - - SE 20 24 11 13 - - -
24/05:00pm - - - - - ESE 26 33 14 18 - - -
24/04:30pm - - - - - ESE 28 33 15 18 - - -
24/04:00pm - - - - - ESE 26 35 14 19 - - -
24/03:30pm - - - - - ESE 26 32 14 17 - - -
24/03:00pm - - - - - ESE 26 37 14 20 - - -
24/02:30pm - - - - - SE 30 37 16 20 - - -
24/02:00pm - - - - - SE 24 32 13 17 - - -
24/01:30pm - - - - - ESE 24 32 13 17 - - -
24/01:00pm - - - - - ESE 26 33 14 18 - - -
24/12:30pm - - - - - ESE 30 39 16 21 - - -
24/12:00pm - - - - - ESE 28 43 15 23 - - -
24/11:30am - - - - - ESE 32 46 17 25 - - -
24/11:00am - - - - - ESE 33 43 18 23 - - -
24/10:30am - - - - - ESE 33 44 18 24 - - -
24/10:00am - - - - - ESE 37 46 20 25 - - -
24/09:30am - - - - - E 28 41 15 22 - - -
24/09:00am - - - - - E 26 43 14 23 - - -
24/08:30am - - - - - ESE 22 39 12 21 - - -
24/08:00am - - - - - SE 19 30 10 16 - - -
24/07:30am - - - - - ESE 22 32 12 17 - - -
24/07:00am - - - - - ESE 22 33 12 18 - - -
24/06:30am - - - - - ESE 19 32 10 17 - - -
24/06:00am - - - - - ESE 24 33 13 18 - - -
24/05:30am - - - - - ESE 22 32 12 17 - - -
24/05:00am - - - - - ESE 30 41 16 22 - - -
24/04:30am - - - - - ESE 30 39 16 21 - - -
24/04:00am - - - - - ESE 24 33 13 18 - - -
24/03:30am - - - - - ESE 24 32 13 17 - - -

Other Formats:

Comma delimited format used in spreadsheet applications
http://www.bom.gov.au/fwo/IDW60801/IDW60801.95620.axf

JavaScript Object Notation format (JSON) in row-major order
http://www.bom.gov.au/fwo/IDW60801/IDW60801.95620.json